チタ の空港の天気 - METARとTAF

チタ・カダラ空港 ( UIAA / HTA ) - ロシア チタ
飛行場実況気象(Metar)
観測時間10/16 16:30 YAKT (10/16 07:30 UTC)
風向・風速不定 1m/s
視程10km以上
天気現象
なし
気温15℃
湿度16%
気圧1019hPa
METARUIAA 160730Z VRB01MPS 9999 NSC 15/M11 Q1019 R29/CLRD70 NOSIG RMK QFE705/0941
過去の天気等 Google飛行場航空写真 Wunderground天気予報

過去48時間のMETAR

飛行場予報(TAF)
発表時間: 10/16 14:00 YAKT (10/16 05:00 UTC)
予報対象時間: 16日15時 YAKT ~ 17日15時 YAKT
風向・風速東 3m/s
視程10km以上
なし
TAF UIAA 160500Z 1606/1706 09003MPS 9999 NSC